sensor_id;sensor_type;location;lat;lon;timestamp;temperature;humidity
24444;DHT22;13346;50.984;5.822;2023-12-20T00:00:31;7.70;99.90
24444;DHT22;13346;50.984;5.822;2023-12-20T00:02:59;7.70;99.90
24444;DHT22;13346;50.984;5.822;2023-12-20T00:05:26;7.70;99.90
24444;DHT22;13346;50.984;5.822;2023-12-20T00:07:53;7.60;99.90
24444;DHT22;13346;50.984;5.822;2023-12-20T00:10:20;7.60;99.90
24444;DHT22;13346;50.984;5.822;2023-12-20T00:12:47;7.60;99.90
24444;DHT22;13346;50.984;5.822;2023-12-20T00:15:14;7.50;99.90
24444;DHT22;13346;50.984;5.822;2023-12-20T00:17:43;7.40;99.90
24444;DHT22;13346;50.984;5.822;2023-12-20T00:20:10;7.20;99.90
24444;DHT22;13346;50.984;5.822;2023-12-20T00:22:37;7.10;99.90
24444;DHT22;13346;50.984;5.822;2023-12-20T00:25:05;7.00;99.90
24444;DHT22;13346;50.984;5.822;2023-12-20T00:27:32;6.90;99.90
24444;DHT22;13346;50.984;5.822;2023-12-20T00:30:00;6.80;99.90
24444;DHT22;13346;50.984;5.822;2023-12-20T00:32:27;6.80;99.90
24444;DHT22;13346;50.984;5.822;2023-12-20T00:34:55;6.60;99.90
24444;DHT22;13346;50.984;5.822;2023-12-20T00:37:22;6.60;99.90
24444;DHT22;13346;50.984;5.822;2023-12-20T00:39:50;6.50;99.90
24444;DHT22;13346;50.984;5.822;2023-12-20T00:42:17;6.40;99.90
24444;DHT22;13346;50.984;5.822;2023-12-20T00:44:44;6.30;99.90
24444;DHT22;13346;50.984;5.822;2023-12-20T00:47:11;6.30;99.90
24444;DHT22;13346;50.984;5.822;2023-12-20T00:49:39;6.30;99.90
24444;DHT22;13346;50.984;5.822;2023-12-20T00:52:07;6.30;99.90
24444;DHT22;13346;50.984;5.822;2023-12-20T00:54:34;6.20;99.90
24444;DHT22;13346;50.984;5.822;2023-12-20T00:57:01;6.10;99.90
24444;DHT22;13346;50.984;5.822;2023-12-20T00:59:28;6.00;99.90
24444;DHT22;13346;50.984;5.822;2023-12-20T01:01:56;5.90;99.90
24444;DHT22;13346;50.984;5.822;2023-12-20T01:04:23;5.90;99.90
24444;DHT22;13346;50.984;5.822;2023-12-20T01:06:50;6.00;99.90
24444;DHT22;13346;50.984;5.822;2023-12-20T01:09:18;6.00;99.90
24444;DHT22;13346;50.984;5.822;2023-12-20T01:11:45;6.00;99.90
24444;DHT22;13346;50.984;5.822;2023-12-20T01:14:13;6.00;99.90
24444;DHT22;13346;50.984;5.822;2023-12-20T01:16:39;6.00;99.90
24444;DHT22;13346;50.984;5.822;2023-12-20T01:19:06;6.10;99.90
24444;DHT22;13346;50.984;5.822;2023-12-20T01:21:33;6.10;99.90
24444;DHT22;13346;50.984;5.822;2023-12-20T01:24:00;6.00;99.90
24444;DHT22;13346;50.984;5.822;2023-12-20T01:26:29;6.00;99.90
24444;DHT22;13346;50.984;5.822;2023-12-20T01:28:56;5.90;99.90
24444;DHT22;13346;50.984;5.822;2023-12-20T01:31:23;5.90;99.90
24444;DHT22;13346;50.984;5.822;2023-12-20T01:33:50;5.90;99.90
24444;DHT22;13346;50.984;5.822;2023-12-20T01:36:17;6.00;99.90
24444;DHT22;13346;50.984;5.822;2023-12-20T01:38:45;5.90;99.90
24444;DHT22;13346;50.984;5.822;2023-12-20T01:41:12;5.80;99.90
24444;DHT22;13346;50.984;5.822;2023-12-20T01:43:41;5.70;99.90
24444;DHT22;13346;50.984;5.822;2023-12-20T01:46:08;5.70;99.90
24444;DHT22;13346;50.984;5.822;2023-12-20T01:48:35;5.80;99.90
24444;DHT22;13346;50.984;5.822;2023-12-20T01:51:04;5.80;99.90
24444;DHT22;13346;50.984;5.822;2023-12-20T01:53:31;5.70;99.90
24444;DHT22;13346;50.984;5.822;2023-12-20T01:55:59;5.60;99.90
24444;DHT22;13346;50.984;5.822;2023-12-20T01:58:26;5.60;99.90
24444;DHT22;13346;50.984;5.822;2023-12-20T02:00:56;5.60;99.90
24444;DHT22;13346;50.984;5.822;2023-12-20T02:03:23;5.60;99.90
24444;DHT22;13346;50.984;5.822;2023-12-20T02:05:51;5.70;99.90
24444;DHT22;13346;50.984;5.822;2023-12-20T02:08:19;5.60;99.90
24444;DHT22;13346;50.984;5.822;2023-12-20T02:10:47;5.60;99.90
24444;DHT22;13346;50.984;5.822;2023-12-20T02:13:14;5.60;99.90
24444;DHT22;13346;50.984;5.822;2023-12-20T02:15:41;5.50;99.90
24444;DHT22;13346;50.984;5.822;2023-12-20T02:18:10;5.50;99.90
24444;DHT22;13346;50.984;5.822;2023-12-20T02:20:41;5.50;99.90
24444;DHT22;13346;50.984;5.822;2023-12-20T02:23:09;5.60;99.90
24444;DHT22;13346;50.984;5.822;2023-12-20T02:25:36;5.60;99.90
24444;DHT22;13346;50.984;5.822;2023-12-20T02:28:04;5.60;99.90
24444;DHT22;13346;50.984;5.822;2023-12-20T02:30:32;5.50;99.90
24444;DHT22;13346;50.984;5.822;2023-12-20T02:33:00;5.50;99.90
24444;DHT22;13346;50.984;5.822;2023-12-20T02:35:27;5.60;99.90
24444;DHT22;13346;50.984;5.822;2023-12-20T02:37:55;5.70;99.90
24444;DHT22;13346;50.984;5.822;2023-12-20T02:40:23;5.70;99.90
24444;DHT22;13346;50.984;5.822;2023-12-20T02:42:50;5.70;99.90
24444;DHT22;13346;50.984;5.822;2023-12-20T02:45:17;5.70;99.90
24444;DHT22;13346;50.984;5.822;2023-12-20T02:47:45;5.60;99.90
24444;DHT22;13346;50.984;5.822;2023-12-20T02:50:12;5.60;99.90
24444;DHT22;13346;50.984;5.822;2023-12-20T02:52:39;5.40;99.90
24444;DHT22;13346;50.984;5.822;2023-12-20T02:55:06;5.40;99.90
24444;DHT22;13346;50.984;5.822;2023-12-20T02:57:35;5.40;99.90
24444;DHT22;13346;50.984;5.822;2023-12-20T03:00:03;5.30;99.90
24444;DHT22;13346;50.984;5.822;2023-12-20T03:02:30;5.30;99.90
24444;DHT22;13346;50.984;5.822;2023-12-20T03:04:57;5.40;99.90
24444;DHT22;13346;50.984;5.822;2023-12-20T03:07:26;5.40;99.90
24444;DHT22;13346;50.984;5.822;2023-12-20T03:09:53;5.40;99.90
24444;DHT22;13346;50.984;5.822;2023-12-20T03:12:20;5.50;99.90
24444;DHT22;13346;50.984;5.822;2023-12-20T03:14:49;5.50;99.90
24444;DHT22;13346;50.984;5.822;2023-12-20T03:17:16;5.50;99.90
24444;DHT22;13346;50.984;5.822;2023-12-20T03:19:44;5.50;99.90
24444;DHT22;13346;50.984;5.822;2023-12-20T03:22:11;5.30;99.90
24444;DHT22;13346;50.984;5.822;2023-12-20T03:24:38;5.20;99.90
24444;DHT22;13346;50.984;5.822;2023-12-20T03:27:06;5.20;99.90
24444;DHT22;13346;50.984;5.822;2023-12-20T03:29:33;5.20;99.90
24444;DHT22;13346;50.984;5.822;2023-12-20T03:32:01;5.30;99.90
24444;DHT22;13346;50.984;5.822;2023-12-20T03:34:29;5.30;99.90
24444;DHT22;13346;50.984;5.822;2023-12-20T03:36:56;5.40;99.90
24444;DHT22;13346;50.984;5.822;2023-12-20T03:39:23;5.40;99.90
24444;DHT22;13346;50.984;5.822;2023-12-20T03:41:50;5.30;99.90
24444;DHT22;13346;50.984;5.822;2023-12-20T03:44:17;5.30;99.90
24444;DHT22;13346;50.984;5.822;2023-12-20T03:46:44;5.30;99.90
24444;DHT22;13346;50.984;5.822;2023-12-20T03:49:13;5.10;99.90
24444;DHT22;13346;50.984;5.822;2023-12-20T03:51:41;5.10;99.90
24444;DHT22;13346;50.984;5.822;2023-12-20T03:54:08;5.10;99.90
24444;DHT22;13346;50.984;5.822;2023-12-20T03:56:36;5.00;99.90
24444;DHT22;13346;50.984;5.822;2023-12-20T03:59:03;5.00;99.90
24444;DHT22;13346;50.984;5.822;2023-12-20T04:01:30;4.90;99.90
24444;DHT22;13346;50.984;5.822;2023-12-20T04:03:57;4.90;99.90
24444;DHT22;13346;50.984;5.822;2023-12-20T04:06:26;4.90;99.90
24444;DHT22;13346;50.984;5.822;2023-12-20T04:08:53;4.90;99.90
24444;DHT22;13346;50.984;5.822;2023-12-20T04:11:20;5.00;99.90
24444;DHT22;13346;50.984;5.822;2023-12-20T04:13:48;4.90;99.90
24444;DHT22;13346;50.984;5.822;2023-12-20T04:16:15;5.00;99.90
24444;DHT22;13346;50.984;5.822;2023-12-20T04:18:42;5.00;99.90
24444;DHT22;13346;50.984;5.822;2023-12-20T04:21:09;5.10;99.90
24444;DHT22;13346;50.984;5.822;2023-12-20T04:23:38;5.10;99.90
24444;DHT22;13346;50.984;5.822;2023-12-20T04:26:05;5.10;99.90
24444;DHT22;13346;50.984;5.822;2023-12-20T04:28:32;5.10;99.90
24444;DHT22;13346;50.984;5.822;2023-12-20T04:31:00;5.20;99.90
24444;DHT22;13346;50.984;5.822;2023-12-20T04:33:28;5.20;99.90
24444;DHT22;13346;50.984;5.822;2023-12-20T04:35:55;5.20;99.90
24444;DHT22;13346;50.984;5.822;2023-12-20T04:38:23;5.20;99.90
24444;DHT22;13346;50.984;5.822;2023-12-20T04:40:51;5.20;99.90
24444;DHT22;13346;50.984;5.822;2023-12-20T04:43:19;5.20;99.90
24444;DHT22;13346;50.984;5.822;2023-12-20T04:45:46;5.30;99.90
24444;DHT22;13346;50.984;5.822;2023-12-20T04:48:13;5.30;99.90
24444;DHT22;13346;50.984;5.822;2023-12-20T04:50:40;5.30;99.90
24444;DHT22;13346;50.984;5.822;2023-12-20T04:53:07;5.30;99.90
24444;DHT22;13346;50.984;5.822;2023-12-20T04:55:34;5.40;99.90
24444;DHT22;13346;50.984;5.822;2023-12-20T04:58:03;5.40;99.90
24444;DHT22;13346;50.984;5.822;2023-12-20T05:00:31;5.40;99.90
24444;DHT22;13346;50.984;5.822;2023-12-20T05:02:58;5.50;99.90
24444;DHT22;13346;50.984;5.822;2023-12-20T05:05:25;5.40;99.90
24444;DHT22;13346;50.984;5.822;2023-12-20T05:07:53;5.40;99.90
24444;DHT22;13346;50.984;5.822;2023-12-20T05:10:20;5.50;99.90
24444;DHT22;13346;50.984;5.822;2023-12-20T05:12:47;5.50;99.90
24444;DHT22;13346;50.984;5.822;2023-12-20T05:15:16;5.50;99.90
24444;DHT22;13346;50.984;5.822;2023-12-20T05:17:43;5.60;99.90
24444;DHT22;13346;50.984;5.822;2023-12-20T05:20:10;5.60;99.90
24444;DHT22;13346;50.984;5.822;2023-12-20T05:22:37;5.60;99.90
24444;DHT22;13346;50.984;5.822;2023-12-20T05:25:05;5.60;99.90
24444;DHT22;13346;50.984;5.822;2023-12-20T05:27:33;5.60;99.90
24444;DHT22;13346;50.984;5.822;2023-12-20T05:30:00;5.60;99.90
24444;DHT22;13346;50.984;5.822;2023-12-20T05:32:30;5.60;99.90
24444;DHT22;13346;50.984;5.822;2023-12-20T05:34:57;5.60;99.90
24444;DHT22;13346;50.984;5.822;2023-12-20T05:37:24;5.60;99.90
24444;DHT22;13346;50.984;5.822;2023-12-20T05:39:51;5.60;99.90
24444;DHT22;13346;50.984;5.822;2023-12-20T05:42:19;5.70;99.90
24444;DHT22;13346;50.984;5.822;2023-12-20T05:44:46;5.70;99.90
24444;DHT22;13346;50.984;5.822;2023-12-20T05:47:13;5.60;99.90
24444;DHT22;13346;50.984;5.822;2023-12-20T05:49:42;5.60;99.90
24444;DHT22;13346;50.984;5.822;2023-12-20T05:52:10;5.50;99.90
24444;DHT22;13346;50.984;5.822;2023-12-20T05:54:37;5.50;99.90
24444;DHT22;13346;50.984;5.822;2023-12-20T05:57:04;5.60;99.90
24444;DHT22;13346;50.984;5.822;2023-12-20T05:59:32;5.60;99.90
24444;DHT22;13346;50.984;5.822;2023-12-20T06:01:59;5.60;99.90
24444;DHT22;13346;50.984;5.822;2023-12-20T06:04:26;5.60;99.90
24444;DHT22;13346;50.984;5.822;2023-12-20T06:06:54;5.60;99.90
24444;DHT22;13346;50.984;5.822;2023-12-20T06:09:22;5.50;99.90
24444;DHT22;13346;50.984;5.822;2023-12-20T06:11:49;5.50;99.90
24444;DHT22;13346;50.984;5.822;2023-12-20T06:14:16;5.50;99.90
24444;DHT22;13346;50.984;5.822;2023-12-20T06:16:44;5.50;99.90
24444;DHT22;13346;50.984;5.822;2023-12-20T06:19:12;5.60;99.90
24444;DHT22;13346;50.984;5.822;2023-12-20T06:21:39;5.50;99.90
24444;DHT22;13346;50.984;5.822;2023-12-20T06:24:08;5.60;99.90
24444;DHT22;13346;50.984;5.822;2023-12-20T06:26:35;5.50;99.90
24444;DHT22;13346;50.984;5.822;2023-12-20T06:29:03;5.50;99.90
24444;DHT22;13346;50.984;5.822;2023-12-20T06:31:30;5.50;99.90
24444;DHT22;13346;50.984;5.822;2023-12-20T06:33:58;5.60;99.90
24444;DHT22;13346;50.984;5.822;2023-12-20T06:36:25;5.60;99.90
24444;DHT22;13346;50.984;5.822;2023-12-20T06:38:53;5.50;99.90
24444;DHT22;13346;50.984;5.822;2023-12-20T06:41:21;5.40;99.90
24444;DHT22;13346;50.984;5.822;2023-12-20T06:43:50;5.30;99.90
24444;DHT22;13346;50.984;5.822;2023-12-20T06:46:18;5.30;99.90
24444;DHT22;13346;50.984;5.822;2023-12-20T06:48:46;5.30;99.90
24444;DHT22;13346;50.984;5.822;2023-12-20T06:51:15;5.20;99.90
24444;DHT22;13346;50.984;5.822;2023-12-20T06:53:42;5.20;99.90
24444;DHT22;13346;50.984;5.822;2023-12-20T06:56:11;5.30;99.90
24444;DHT22;13346;50.984;5.822;2023-12-20T06:58:39;5.20;99.90
24444;DHT22;13346;50.984;5.822;2023-12-20T07:01:11;5.10;99.90
24444;DHT22;13346;50.984;5.822;2023-12-20T07:03:38;5.10;99.90
24444;DHT22;13346;50.984;5.822;2023-12-20T07:06:06;5.10;99.90
24444;DHT22;13346;50.984;5.822;2023-12-20T07:08:33;5.20;99.90
24444;DHT22;13346;50.984;5.822;2023-12-20T07:11:00;5.20;99.90
24444;DHT22;13346;50.984;5.822;2023-12-20T07:13:27;5.10;99.90
24444;DHT22;13346;50.984;5.822;2023-12-20T07:15:56;5.00;99.90
24444;DHT22;13346;50.984;5.822;2023-12-20T07:18:23;4.90;99.90
24444;DHT22;13346;50.984;5.822;2023-12-20T07:20:50;5.00;99.90
24444;DHT22;13346;50.984;5.822;2023-12-20T07:23:18;4.90;99.90
24444;DHT22;13346;50.984;5.822;2023-12-20T07:25:46;4.80;99.90
24444;DHT22;13346;50.984;5.822;2023-12-20T07:28:13;4.80;99.90
24444;DHT22;13346;50.984;5.822;2023-12-20T07:30:40;4.90;99.90
24444;DHT22;13346;50.984;5.822;2023-12-20T07:33:09;4.90;99.90
24444;DHT22;13346;50.984;5.822;2023-12-20T07:35:38;4.90;99.90
24444;DHT22;13346;50.984;5.822;2023-12-20T07:38:05;5.00;99.90
24444;DHT22;13346;50.984;5.822;2023-12-20T07:40:32;5.00;99.90
24444;DHT22;13346;50.984;5.822;2023-12-20T07:43:00;5.00;99.90
24444;DHT22;13346;50.984;5.822;2023-12-20T07:45:27;5.00;99.90
24444;DHT22;13346;50.984;5.822;2023-12-20T07:47:54;5.00;99.90
24444;DHT22;13346;50.984;5.822;2023-12-20T07:50:22;5.00;99.90
24444;DHT22;13346;50.984;5.822;2023-12-20T07:52:50;4.90;99.90
24444;DHT22;13346;50.984;5.822;2023-12-20T07:55:17;4.90;99.90
24444;DHT22;13346;50.984;5.822;2023-12-20T07:57:44;4.90;99.90
24444;DHT22;13346;50.984;5.822;2023-12-20T08:00:12;5.00;99.90
24444;DHT22;13346;50.984;5.822;2023-12-20T08:02:40;5.10;99.90
24444;DHT22;13346;50.984;5.822;2023-12-20T08:05:07;5.10;99.90
24444;DHT22;13346;50.984;5.822;2023-12-20T08:07:36;5.10;99.90
24444;DHT22;13346;50.984;5.822;2023-12-20T08:10:05;5.00;99.90
24444;DHT22;13346;50.984;5.822;2023-12-20T08:12:32;5.10;99.90
24444;DHT22;13346;50.984;5.822;2023-12-20T08:14:59;5.10;99.90
24444;DHT22;13346;50.984;5.822;2023-12-20T08:17:27;5.10;99.90
24444;DHT22;13346;50.984;5.822;2023-12-20T08:19:54;5.10;99.90
24444;DHT22;13346;50.984;5.822;2023-12-20T08:22:21;5.10;99.90
24444;DHT22;13346;50.984;5.822;2023-12-20T08:24:50;5.00;99.90
24444;DHT22;13346;50.984;5.822;2023-12-20T08:27:17;5.00;99.90
24444;DHT22;13346;50.984;5.822;2023-12-20T08:29:44;5.00;99.90
24444;DHT22;13346;50.984;5.822;2023-12-20T08:32:12;5.10;99.90
24444;DHT22;13346;50.984;5.822;2023-12-20T08:34:39;5.10;99.90
24444;DHT22;13346;50.984;5.822;2023-12-20T08:37:06;5.10;99.90
24444;DHT22;13346;50.984;5.822;2023-12-20T08:39:33;5.30;99.90
24444;DHT22;13346;50.984;5.822;2023-12-20T08:42:02;5.40;99.90
24444;DHT22;13346;50.984;5.822;2023-12-20T08:44:29;5.40;99.90
24444;DHT22;13346;50.984;5.822;2023-12-20T08:46:56;5.50;99.90
24444;DHT22;13346;50.984;5.822;2023-12-20T08:49:23;5.50;99.90
24444;DHT22;13346;50.984;5.822;2023-12-20T08:51:51;5.50;99.90
24444;DHT22;13346;50.984;5.822;2023-12-20T08:54:18;5.40;99.90
24444;DHT22;13346;50.984;5.822;2023-12-20T08:56:45;5.30;99.90
24444;DHT22;13346;50.984;5.822;2023-12-20T08:59:14;5.30;99.90
24444;DHT22;13346;50.984;5.822;2023-12-20T09:01:41;5.40;99.90
24444;DHT22;13346;50.984;5.822;2023-12-20T09:04:08;5.50;99.90
24444;DHT22;13346;50.984;5.822;2023-12-20T09:06:36;5.50;99.90
24444;DHT22;13346;50.984;5.822;2023-12-20T09:09:03;5.70;99.90
24444;DHT22;13346;50.984;5.822;2023-12-20T09:11:30;5.80;99.90
24444;DHT22;13346;50.984;5.822;2023-12-20T09:13:57;5.80;99.90
24444;DHT22;13346;50.984;5.822;2023-12-20T09:16:25;5.70;99.90
24444;DHT22;13346;50.984;5.822;2023-12-20T09:18:53;5.80;99.90
24444;DHT22;13346;50.984;5.822;2023-12-20T09:21:20;6.20;99.90
24444;DHT22;13346;50.984;5.822;2023-12-20T09:23:47;6.10;99.90
24444;DHT22;13346;50.984;5.822;2023-12-20T09:26:14;6.10;99.90
24444;DHT22;13346;50.984;5.822;2023-12-20T09:28:42;6.50;99.90
24444;DHT22;13346;50.984;5.822;2023-12-20T09:31:09;6.70;99.90
24444;DHT22;13346;50.984;5.822;2023-12-20T09:33:37;6.50;99.90
24444;DHT22;13346;50.984;5.822;2023-12-20T09:36:05;6.40;99.90
24444;DHT22;13346;50.984;5.822;2023-12-20T09:38:32;6.50;99.90
24444;DHT22;13346;50.984;5.822;2023-12-20T09:41:00;6.60;99.90
24444;DHT22;13346;50.984;5.822;2023-12-20T09:43:30;6.50;99.90
24444;DHT22;13346;50.984;5.822;2023-12-20T09:46:00;6.40;99.90
24444;DHT22;13346;50.984;5.822;2023-12-20T09:48:28;6.50;99.90
24444;DHT22;13346;50.984;5.822;2023-12-20T09:50:58;6.30;99.90
24444;DHT22;13346;50.984;5.822;2023-12-20T09:53:25;6.60;99.90
24444;DHT22;13346;50.984;5.822;2023-12-20T09:55:58;7.00;99.90
24444;DHT22;13346;50.984;5.822;2023-12-20T09:58:25;7.00;99.90
24444;DHT22;13346;50.984;5.822;2023-12-20T10:00:54;6.70;99.90
24444;DHT22;13346;50.984;5.822;2023-12-20T10:03:25;6.80;99.90
24444;DHT22;13346;50.984;5.822;2023-12-20T10:05:54;6.90;99.90
24444;DHT22;13346;50.984;5.822;2023-12-20T10:08:25;7.30;99.90
24444;DHT22;13346;50.984;5.822;2023-12-20T10:10:52;7.50;99.90
24444;DHT22;13346;50.984;5.822;2023-12-20T10:13:19;7.20;99.90
24444;DHT22;13346;50.984;5.822;2023-12-20T10:15:47;7.00;99.90
24444;DHT22;13346;50.984;5.822;2023-12-20T10:18:14;7.00;99.90
24444;DHT22;13346;50.984;5.822;2023-12-20T10:20:42;6.80;99.90
24444;DHT22;13346;50.984;5.822;2023-12-20T10:23:10;6.70;99.90
24444;DHT22;13346;50.984;5.822;2023-12-20T10:25:39;6.80;99.90
24444;DHT22;13346;50.984;5.822;2023-12-20T10:28:11;6.90;99.90
24444;DHT22;13346;50.984;5.822;2023-12-20T10:30:39;6.90;99.90
24444;DHT22;13346;50.984;5.822;2023-12-20T10:33:06;6.80;99.90
24444;DHT22;13346;50.984;5.822;2023-12-20T10:35:34;6.80;99.90
24444;DHT22;13346;50.984;5.822;2023-12-20T10:38:04;6.80;99.90
24444;DHT22;13346;50.984;5.822;2023-12-20T10:40:34;6.80;99.90
24444;DHT22;13346;50.984;5.822;2023-12-20T10:43:04;6.80;99.90
24444;DHT22;13346;50.984;5.822;2023-12-20T10:45:32;6.80;99.90
24444;DHT22;13346;50.984;5.822;2023-12-20T10:48:01;6.90;99.90
24444;DHT22;13346;50.984;5.822;2023-12-20T10:50:29;6.90;99.90
24444;DHT22;13346;50.984;5.822;2023-12-20T10:52:57;6.90;99.90
24444;DHT22;13346;50.984;5.822;2023-12-20T10:55:25;6.90;99.90
24444;DHT22;13346;50.984;5.822;2023-12-20T10:57:53;7.00;99.90
24444;DHT22;13346;50.984;5.822;2023-12-20T11:00:23;7.20;99.90
24444;DHT22;13346;50.984;5.822;2023-12-20T11:02:51;7.40;99.90
24444;DHT22;13346;50.984;5.822;2023-12-20T11:05:25;7.70;99.90
24444;DHT22;13346;50.984;5.822;2023-12-20T11:07:58;7.80;99.90
24444;DHT22;13346;50.984;5.822;2023-12-20T11:10:31;7.60;99.90
24444;DHT22;13346;50.984;5.822;2023-12-20T11:13:06;7.50;99.90
24444;DHT22;13346;50.984;5.822;2023-12-20T11:15:37;7.40;99.90
24444;DHT22;13346;50.984;5.822;2023-12-20T11:18:05;7.50;99.90
24444;DHT22;13346;50.984;5.822;2023-12-20T11:20:36;7.40;99.90
24444;DHT22;13346;50.984;5.822;2023-12-20T11:23:05;7.40;99.90
24444;DHT22;13346;50.984;5.822;2023-12-20T11:25:49;7.30;99.90
24444;DHT22;13346;50.984;5.822;2023-12-20T11:28:21;7.40;99.90
24444;DHT22;13346;50.984;5.822;2023-12-20T11:30:51;7.40;99.90
24444;DHT22;13346;50.984;5.822;2023-12-20T11:33:22;7.40;99.90
24444;DHT22;13346;50.984;5.822;2023-12-20T11:35:49;7.50;99.90
24444;DHT22;13346;50.984;5.822;2023-12-20T11:38:17;7.50;99.90
24444;DHT22;13346;50.984;5.822;2023-12-20T11:40:48;7.50;99.90
24444;DHT22;13346;50.984;5.822;2023-12-20T11:43:29;7.40;99.90
24444;DHT22;13346;50.984;5.822;2023-12-20T11:46:03;7.40;99.90
24444;DHT22;13346;50.984;5.822;2023-12-20T11:48:30;7.40;99.90
24444;DHT22;13346;50.984;5.822;2023-12-20T11:50:58;7.40;99.90
24444;DHT22;13346;50.984;5.822;2023-12-20T11:53:25;7.40;99.90
24444;DHT22;13346;50.984;5.822;2023-12-20T11:55:54;7.40;99.90
24444;DHT22;13346;50.984;5.822;2023-12-20T11:58:21;7.40;99.90
24444;DHT22;13346;50.984;5.822;2023-12-20T12:00:49;7.30;99.90
24444;DHT22;13346;50.984;5.822;2023-12-20T12:03:18;7.30;99.90
24444;DHT22;13346;50.984;5.822;2023-12-20T12:05:47;7.20;99.90
24444;DHT22;13346;50.984;5.822;2023-12-20T12:08:14;7.10;99.90
24444;DHT22;13346;50.984;5.822;2023-12-20T12:10:42;7.10;99.90
24444;DHT22;13346;50.984;5.822;2023-12-20T12:13:09;7.00;99.90
24444;DHT22;13346;50.984;5.822;2023-12-20T12:15:36;7.00;99.90
24444;DHT22;13346;50.984;5.822;2023-12-20T12:18:05;6.90;99.90
24444;DHT22;13346;50.984;5.822;2023-12-20T12:20:33;6.90;99.90
24444;DHT22;13346;50.984;5.822;2023-12-20T12:23:01;6.80;99.90
24444;DHT22;13346;50.984;5.822;2023-12-20T12:25:29;6.80;99.90
24444;DHT22;13346;50.984;5.822;2023-12-20T12:27:57;6.80;99.90
24444;DHT22;13346;50.984;5.822;2023-12-20T12:30:25;6.70;99.90
24444;DHT22;13346;50.984;5.822;2023-12-20T12:32:53;6.80;99.90
24444;DHT22;13346;50.984;5.822;2023-12-20T12:35:21;6.80;99.90
24444;DHT22;13346;50.984;5.822;2023-12-20T12:37:49;6.80;99.90
24444;DHT22;13346;50.984;5.822;2023-12-20T12:40:18;6.90;99.90
24444;DHT22;13346;50.984;5.822;2023-12-20T12:42:46;6.90;99.90
24444;DHT22;13346;50.984;5.822;2023-12-20T12:45:13;7.10;99.90
24444;DHT22;13346;50.984;5.822;2023-12-20T12:47:41;7.00;99.90
24444;DHT22;13346;50.984;5.822;2023-12-20T12:50:08;7.10;99.90
24444;DHT22;13346;50.984;5.822;2023-12-20T12:52:36;7.20;99.90
24444;DHT22;13346;50.984;5.822;2023-12-20T12:55:05;7.20;99.90
24444;DHT22;13346;50.984;5.822;2023-12-20T12:57:32;7.20;99.90
24444;DHT22;13346;50.984;5.822;2023-12-20T13:00:00;7.20;99.90
24444;DHT22;13346;50.984;5.822;2023-12-20T13:02:28;7.10;99.90
24444;DHT22;13346;50.984;5.822;2023-12-20T13:04:56;7.10;99.90
24444;DHT22;13346;50.984;5.822;2023-12-20T13:07:23;7.10;99.90
24444;DHT22;13346;50.984;5.822;2023-12-20T13:09:50;7.00;99.90
24444;DHT22;13346;50.984;5.822;2023-12-20T13:12:19;7.00;99.90
24444;DHT22;13346;50.984;5.822;2023-12-20T13:14:47;7.00;99.90
24444;DHT22;13346;50.984;5.822;2023-12-20T13:17:14;7.00;99.90
24444;DHT22;13346;50.984;5.822;2023-12-20T13:19:42;7.00;99.90
24444;DHT22;13346;50.984;5.822;2023-12-20T13:22:09;7.20;99.90
24444;DHT22;13346;50.984;5.822;2023-12-20T13:24:36;7.20;99.90
24444;DHT22;13346;50.984;5.822;2023-12-20T13:27:03;7.10;99.90
24444;DHT22;13346;50.984;5.822;2023-12-20T13:29:32;7.20;99.90
24444;DHT22;13346;50.984;5.822;2023-12-20T13:31:59;7.20;99.90
24444;DHT22;13346;50.984;5.822;2023-12-20T13:34:26;7.20;99.90
24444;DHT22;13346;50.984;5.822;2023-12-20T13:36:53;7.30;99.90
24444;DHT22;13346;50.984;5.822;2023-12-20T13:39:20;7.40;99.90
24444;DHT22;13346;50.984;5.822;2023-12-20T13:41:48;7.50;99.90
24444;DHT22;13346;50.984;5.822;2023-12-20T13:44:15;7.40;99.90
24444;DHT22;13346;50.984;5.822;2023-12-20T13:46:44;7.40;99.90
24444;DHT22;13346;50.984;5.822;2023-12-20T13:49:12;7.40;99.90
24444;DHT22;13346;50.984;5.822;2023-12-20T13:51:39;7.40;99.90
24444;DHT22;13346;50.984;5.822;2023-12-20T13:54:06;7.40;99.90
24444;DHT22;13346;50.984;5.822;2023-12-20T13:56:34;7.40;99.90
24444;DHT22;13346;50.984;5.822;2023-12-20T13:59:01;7.30;99.90
24444;DHT22;13346;50.984;5.822;2023-12-20T14:01:29;7.30;99.90
24444;DHT22;13346;50.984;5.822;2023-12-20T14:03:57;7.30;99.90
24444;DHT22;13346;50.984;5.822;2023-12-20T14:06:26;7.30;99.90
24444;DHT22;13346;50.984;5.822;2023-12-20T14:08:53;7.20;99.90
24444;DHT22;13346;50.984;5.822;2023-12-20T14:11:20;7.20;99.90
24444;DHT22;13346;50.984;5.822;2023-12-20T14:13:47;7.20;99.90
24444;DHT22;13346;50.984;5.822;2023-12-20T14:16:14;7.20;99.90
24444;DHT22;13346;50.984;5.822;2023-12-20T14:18:42;7.20;99.90
24444;DHT22;13346;50.984;5.822;2023-12-20T14:21:11;7.20;99.90
24444;DHT22;13346;50.984;5.822;2023-12-20T14:23:38;7.20;99.90
24444;DHT22;13346;50.984;5.822;2023-12-20T14:26:05;7.20;99.90
24444;DHT22;13346;50.984;5.822;2023-12-20T14:28:32;7.20;99.90
24444;DHT22;13346;50.984;5.822;2023-12-20T14:30:59;7.20;99.90
24444;DHT22;13346;50.984;5.822;2023-12-20T14:33:26;7.30;99.90
24444;DHT22;13346;50.984;5.822;2023-12-20T14:35:53;7.30;99.90
24444;DHT22;13346;50.984;5.822;2023-12-20T14:38:22;7.30;99.90
24444;DHT22;13346;50.984;5.822;2023-12-20T14:40:49;7.30;99.90
24444;DHT22;13346;50.984;5.822;2023-12-20T14:43:17;7.30;99.90
24444;DHT22;13346;50.984;5.822;2023-12-20T14:45:44;7.30;99.90
24444;DHT22;13346;50.984;5.822;2023-12-20T14:48:11;7.30;99.90
24444;DHT22;13346;50.984;5.822;2023-12-20T14:50:38;7.30;99.90
24444;DHT22;13346;50.984;5.822;2023-12-20T14:53:06;7.30;99.90
24444;DHT22;13346;50.984;5.822;2023-12-20T14:55:35;7.30;99.90
24444;DHT22;13346;50.984;5.822;2023-12-20T14:58:02;7.30;99.90
24444;DHT22;13346;50.984;5.822;2023-12-20T15:00:29;7.30;99.90
24444;DHT22;13346;50.984;5.822;2023-12-20T15:02:57;7.40;99.90
24444;DHT22;13346;50.984;5.822;2023-12-20T15:05:24;7.40;99.90
24444;DHT22;13346;50.984;5.822;2023-12-20T15:07:52;7.40;99.90
24444;DHT22;13346;50.984;5.822;2023-12-20T15:10:19;7.30;99.90
24444;DHT22;13346;50.984;5.822;2023-12-20T15:12:48;7.30;99.90
24444;DHT22;13346;50.984;5.822;2023-12-20T15:15:15;7.30;99.90
24444;DHT22;13346;50.984;5.822;2023-12-20T15:17:42;7.30;99.90
24444;DHT22;13346;50.984;5.822;2023-12-20T15:20:10;7.30;99.90
24444;DHT22;13346;50.984;5.822;2023-12-20T15:22:38;7.30;99.90
24444;DHT22;13346;50.984;5.822;2023-12-20T15:25:07;7.40;99.90
24444;DHT22;13346;50.984;5.822;2023-12-20T15:27:34;7.40;99.90
24444;DHT22;13346;50.984;5.822;2023-12-20T15:30:06;7.40;99.90
24444;DHT22;13346;50.984;5.822;2023-12-20T15:32:35;7.40;99.90
24444;DHT22;13346;50.984;5.822;2023-12-20T15:35:03;7.40;99.90
24444;DHT22;13346;50.984;5.822;2023-12-20T15:37:30;7.40;99.90
24444;DHT22;13346;50.984;5.822;2023-12-20T15:39:57;7.40;99.90
24444;DHT22;13346;50.984;5.822;2023-12-20T15:42:25;7.40;99.90
24444;DHT22;13346;50.984;5.822;2023-12-20T15:44:52;7.30;99.90
24444;DHT22;13346;50.984;5.822;2023-12-20T15:47:20;7.30;99.90